Time;durP1;ratioP1;P1;durP2;ratioP2;P2;SDS_P1;SDS_P2;PMS_P1;PMS_P2;Temp;Humidity;BMP_temperature;BMP_pressure;BME280_temperature;BME280_humidity;BME280_pressure;Samples;Min_cycle;Max_cycle;Signal;HPM_P1;HPM_P2
2023/02/16 00:01:55;;;;;;;64.35;42.47;;;;;;;1.26;93.53;96906.63;5071560;28;20039;-70
2023/02/16 00:04:29;;;;;;;67.88;45.22;;;;;;;1.25;93.71;96907.53;5077197;28;20107;-76
2023/02/16 00:06:56;;;;;;;70.90;45.67;;;;;;;1.24;94.76;96912.81;5075929;28;20487;-63
2023/02/16 00:09:22;;;;;;;60.63;42.97;;;;;;;1.22;93.41;96910.25;5070048;28;20045;-63
2023/02/16 00:14:35;;;;;;;65.22;42.65;;;;;;;1.23;93.27;96906.75;5072816;28;20036;-63
2023/02/16 00:17:01;;;;;;;64.13;44.03;;;;;;;1.24;93.01;96905.03;5075423;28;20118;-63
2023/02/16 00:19:33;;;;;;;63.30;42.50;;;;;;;1.24;92.90;96908.44;5071059;28;20036;-63
2023/02/16 00:22:00;;;;;;;63.13;43.35;;;;;;;1.21;93.50;96908.56;5075356;28;20398;-62
2023/02/16 00:24:28;;;;;;;66.20;41.47;;;;;;;1.19;93.47;96909.50;5074249;28;20040;-66
2023/02/16 00:26:53;;;;;;;61.70;41.50;;;;;;;1.17;93.14;96906.97;5075290;28;20107;-62
2023/02/16 00:29:25;;;;;;;56.97;40.63;;;;;;;1.18;93.97;96902.63;5075926;28;20031;-62
2023/02/16 00:31:51;;;;;;;61.28;40.58;;;;;;;1.14;94.15;96907.09;5074783;28;20131;-63
2023/02/16 00:34:31;;;;;;;52.88;36.95;;;;;;;1.09;95.54;96902.06;5073404;28;20040;-62
2023/02/16 00:36:59;;;;;;;55.85;36.08;;;;;;;1.09;94.14;96911.56;5074130;28;20394;-62
2023/02/16 00:39:26;;;;;;;42.58;28.33;;;;;;;1.11;94.10;96907.19;5074110;28;20099;-62
2023/02/16 00:41:54;;;;;;;36.90;26.80;;;;;;;1.08;94.45;96900.38;5074296;28;20036;-76
2023/02/16 00:44:27;;;;;;;40.05;27.02;;;;;;;1.11;93.74;96902.00;5071539;28;20020;-62
2023/02/16 00:46:53;;;;;;;37.85;25.67;;;;;;;1.13;93.95;96901.03;5057261;28;20082;-66
2023/02/16 00:49:20;;;;;;;37.00;24.33;;;;;;;1.16;92.88;96912.22;5074683;28;20453;-66
2023/02/16 00:51:46;;;;;;;32.03;24.08;;;;;;;1.15;94.01;96908.78;5072461;28;20024;-66
2023/02/16 00:54:12;;;;;;;32.50;23.42;;;;;;;1.14;93.98;96907.91;5072618;28;20024;-66
2023/02/16 00:56:39;;;;;;;30.98;23.30;;;;;;;1.12;94.65;96914.91;5076457;28;20036;-67
2023/02/16 00:59:07;;;;;;;30.38;21.75;;;;;;;1.08;94.92;96913.34;5068522;28;20086;-66
2023/02/16 01:01:33;;;;;;;29.88;22.38;;;;;;;1.06;94.71;96914.28;5055611;28;20036;-66
2023/02/16 01:04:01;;;;;;;30.55;21.10;;;;;;;1.04;95.05;96908.28;5073409;28;20036;-66
2023/02/16 01:12:11;;;;;;;39.45;27.90;;;;;;;1.08;95.37;96908.16;5071181;28;20101;-61
2023/02/16 01:14:36;;;;;;;31.92;22.50;;;;;;;1.00;93.79;96912.75;5072904;28;20395;-62
2023/02/16 01:17:01;;;;;;;28.20;22.30;;;;;;;0.90;94.78;96913.97;5073921;28;20035;-61
2023/02/16 01:19:28;;;;;;;33.95;22.90;;;;;;;0.88;95.06;96915.75;5071584;28;20380;-61
2023/02/16 01:21:53;;;;;;;27.88;20.33;;;;;;;0.89;95.53;96904.50;5074721;28;20048;-62
2023/02/16 01:24:18;;;;;;;24.67;19.50;;;;;;;0.90;94.26;96907.03;5071677;28;20106;-64
2023/02/16 01:26:48;;;;;;;27.05;20.63;;;;;;;0.91;94.88;96908.72;5069482;28;20082;-63
2023/02/16 01:29:16;;;;;;;28.00;19.27;;;;;;;0.88;95.26;96911.41;5074002;28;20032;-63
2023/02/16 01:31:42;;;;;;;28.98;20.48;;;;;;;0.79;95.55;96897.03;5075275;28;20493;-63
2023/02/16 01:34:08;;;;;;;27.05;21.90;;;;;;;0.77;96.00;96896.22;5073240;28;20127;-64
2023/02/16 01:36:36;;;;;;;34.60;24.05;;;;;;;0.73;96.82;96897.22;5068770;28;20119;-63
2023/02/16 01:39:03;;;;;;;33.75;23.98;;;;;;;0.72;95.94;96892.94;5069408;28;20122;-63
2023/02/16 01:41:45;;;;;;;37.83;25.27;;;;;;;0.69;96.59;96895.63;5078121;28;20031;-63
2023/02/16 01:44:19;;;;;;;39.35;26.73;;;;;;;0.70;96.48;96894.72;5072056;28;20111;-70
2023/02/16 01:46:57;;;;;;;36.35;24.98;;;;;;;0.69;96.65;96896.50;5076071;28;20039;-70
2023/02/16 01:49:23;;;;;;;34.50;23.17;;;;;;;0.69;97.12;96900.81;5077332;28;20041;-70
2023/02/16 01:52:28;;;;;;;32.95;22.65;;;;;;;0.67;96.55;96900.03;5072829;28;20029;-70
2023/02/16 01:55:12;;;;;;;28.10;20.13;;;;;;;0.65;96.66;96894.03;5064933;28;20037;-70
2023/02/16 01:57:45;;;;;;;27.30;21.02;;;;;;;0.65;95.82;96894.88;5076759;28;20040;-70
2023/02/16 02:00:25;;;;;;;32.78;22.33;;;;;;;0.72;96.91;96892.94;5071666;28;20935;-71
2023/02/16 02:05:33;;;;;;;28.23;20.40;;;;;;;0.70;95.96;96886.97;5073769;28;20489;-70
2023/02/16 02:05:42;;;;;;;26.67;20.42;;;;;;;0.62;96.31;96891.56;5073812;28;20055;-70
2023/02/16 02:08:13;;;;;;;31.13;20.27;;;;;;;0.57;96.69;96887.38;5074895;28;20545;-70
2023/02/16 02:10:47;;;;;;;26.95;19.23;;;;;;;0.54;97.44;96884.03;5078404;28;20575;-70
2023/02/16 02:13:21;;;;;;;23.60;16.95;;;;;;;0.51;97.14;96887.56;5079923;28;20036;-70
2023/02/16 02:15:47;;;;;;;26.55;17.15;;;;;;;0.53;96.99;96885.78;5079118;28;20056;-71
2023/02/16 02:18:13;;;;;;;35.45;24.10;;;;;;;0.53;96.43;96890.94;5077289;28;20071;-60
2023/02/16 02:23:40;;;;;;;34.85;23.58;;;;;;;0.37;97.05;96887.19;5079016;28;20032;-63
2023/02/16 02:26:32;;;;;;;44.83;30.92;;;;;;;0.35;96.64;96886.41;5075268;28;20143;-62
2023/02/16 02:29:06;;;;;;;54.20;33.03;;;;;;;0.36;96.79;96888.91;5063009;28;20033;-62
2023/02/16 02:31:57;;;;;;;50.42;32.40;;;;;;;0.35;97.49;96886.41;5057013;28;20506;-62
2023/02/16 02:34:32;;;;;;;47.88;29.73;;;;;;;0.29;97.76;96882.25;5057065;28;20044;-62
2023/02/16 02:37:05;;;;;;;48.33;32.00;;;;;;;0.26;97.77;96890.97;5063681;28;20033;-62
2023/02/16 02:39:49;;;;;;;51.55;31.77;;;;;;;0.21;98.06;96890.25;5068802;28;20033;-62
2023/02/16 02:42:28;;;;;;;43.20;24.83;;;;;;;0.21;98.74;96889.41;5067368;28;20040;-63
2023/02/16 02:45:00;;;;;;;39.33;24.20;;;;;;;0.25;98.64;96881.50;5068604;28;20128;-63
2023/02/16 02:47:40;;;;;;;43.80;26.08;;;;;;;0.27;97.26;96892.66;5071977;28;20063;-63
2023/02/16 03:03:08;;;;;;;35.35;22.92;;;;;;;-0.01;98.18;96880.56;5075609;28;20077;-61
2023/02/16 03:05:37;;;;;;;32.13;21.13;;;;;;;0.02;99.35;96877.06;5075455;28;20032;-60
2023/02/16 03:08:12;;;;;;;34.28;22.17;;;;;;;0.04;98.65;96874.41;5074152;28;20103;-60
2023/02/16 03:13:32;;;;;;;36.95;21.40;;;;;;;-0.05;98.08;96871.22;5079320;28;20039;-62
2023/02/16 03:16:00;;;;;;;33.33;20.85;;;;;;;-0.10;98.37;96873.09;5075095;28;20035;-61
2023/02/16 03:29:32;;;;;;;30.90;19.83;;;;;;;-0.28;98.48;96891.78;5077761;28;20106;-64
2023/02/16 03:31:58;;;;;;;29.80;18.90;;;;;;;-0.29;98.79;96890.91;5075946;28;20051;-64
2023/02/16 03:34:24;;;;;;;27.38;16.20;;;;;;;-0.32;98.71;96902.22;5076540;28;20040;-64
2023/02/16 03:36:57;;;;;;;23.67;16.80;;;;;;;-0.34;99.14;96906.56;5078747;28;20059;-61
2023/02/16 03:39:24;;;;;;;23.90;16.70;;;;;;;-0.37;98.59;96909.25;5075725;28;20580;-63
2023/02/16 03:41:52;;;;;;;21.50;15.52;;;;;;;-0.36;99.60;96900.59;5077733;28;20102;-63
2023/02/16 03:44:18;;;;;;;19.33;14.10;;;;;;;-0.36;99.17;96900.59;5076535;28;20025;-63
2023/02/16 03:46:44;;;;;;;18.25;13.57;;;;;;;-0.34;98.98;96903.97;5077502;28;20556;-63
2023/02/16 03:49:09;;;;;;;18.55;13.82;;;;;;;-0.26;100.00;96897.75;5072620;28;20497;-63
2023/02/16 03:51:34;;;;;;;17.10;13.15;;;;;;;-0.21;100.00;96898.47;5078368;28;20048;-62
2023/02/16 03:54:00;;;;;;;21.65;14.40;;;;;;;-0.22;99.17;96886.41;5062497;28;20040;-63
2023/02/16 03:56:25;;;;;;;17.58;13.05;;;;;;;-0.25;100.00;96886.50;5077109;28;20116;-63
2023/02/16 03:58:51;;;;;;;18.38;12.68;;;;;;;-0.26;100.00;96890.81;5076773;28;20038;-62
2023/02/16 04:01:16;;;;;;;16.58;12.27;;;;;;;-0.21;100.00;96896.72;5075048;28;20127;-62
2023/02/16 04:03:42;;;;;;;13.50;11.00;;;;;;;-0.26;100.00;96890.81;5078419;28;20119;-62
2023/02/16 04:06:07;;;;;;;13.70;11.65;;;;;;;-0.23;100.00;96900.25;5076823;28;20036;-62
2023/02/16 04:08:33;;;;;;;17.40;12.88;;;;;;;-0.20;100.00;96900.16;5076881;28;20044;-62
2023/02/16 04:10:59;;;;;;;15.85;13.23;;;;;;;-0.20;99.33;96905.31;5074762;28;20024;-62
2023/02/16 04:13:25;;;;;;;16.23;12.07;;;;;;;-0.24;99.63;96895.97;5078592;28;20035;-62
2023/02/16 04:15:51;;;;;;;14.35;11.52;;;;;;;-0.05;99.10;96902.28;5075092;28;20033;-61
2023/02/16 04:18:16;;;;;;;13.02;11.05;;;;;;;0.05;98.10;96899.41;5073527;28;20551;-70
2023/02/16 04:20:42;;;;;;;26.83;17.42;;;;;;;0.14;97.67;96896.53;5075364;28;20027;-71
2023/02/16 04:23:07;;;;;;;31.20;17.67;;;;;;;0.12;98.21;96894.00;5072894;28;20043;-70
2023/02/16 04:25:33;;;;;;;25.05;16.23;;;;;;;0.09;98.58;96890.63;5073202;28;20040;-71
2023/02/16 04:27:59;;;;;;;25.00;16.52;;;;;;;0.01;99.07;96890.91;5076285;28;20115;-71
2023/02/16 04:30:29;;;;;;;21.65;16.25;;;;;;;-0.07;99.46;96895.44;5077761;28;20413;-71
2023/02/16 04:32:55;;;;;;;22.55;17.08;;;;;;;-0.16;99.90;96893.97;5074873;28;20548;-71
2023/02/16 04:35:20;;;;;;;26.95;16.05;;;;;;;-0.18;99.82;96893.19;5076346;28;20048;-60
2023/02/16 04:37:46;;;;;;;24.45;16.38;;;;;;;-0.20;100.00;96887.22;5075132;28;20055;-60
2023/02/16 04:40:13;;;;;;;23.75;17.30;;;;;;;-0.18;100.00;96885.41;5077186;28;20473;-60
2023/02/16 04:42:40;;;;;;;21.23;14.68;;;;;;;-0.21;99.75;96885.50;5074265;28;20028;-61
2023/02/16 04:45:06;;;;;;;22.23;16.13;;;;;;;-0.22;100.00;96884.69;5073209;28;20031;-60
2023/02/16 04:47:31;;;;;;;21.98;17.67;;;;;;;-0.21;100.00;96877.75;5074542;28;20032;-61
2023/02/16 04:49:56;;;;;;;32.95;23.88;;;;;;;-0.32;99.51;96886.69;5076372;28;20033;-60
2023/02/16 04:52:22;;;;;;;48.08;32.20;;;;;;;-0.35;100.00;96885.94;5075230;28;20023;-61
2023/02/16 04:54:48;;;;;;;43.88;28.48;;;;;;;-0.40;100.00;96888.63;5070186;28;20101;-61
2023/02/16 04:57:14;;;;;;;30.33;22.08;;;;;;;-0.48;100.00;96883.69;5072538;28;20048;-63
2023/02/16 04:59:39;;;;;;;30.33;22.13;;;;;;;-0.52;100.00;96879.50;5072773;28;20040;-63
2023/02/16 05:02:05;;;;;;;26.25;18.90;;;;;;;-0.55;100.00;96883.91;5056642;28;20032;-64
2023/02/16 05:04:30;;;;;;;23.52;17.77;;;;;;;-0.54;100.00;96876.13;5074912;28;20501;-63
2023/02/16 05:06:55;;;;;;;22.30;17.60;;;;;;;-0.56;100.00;96877.03;5077378;28;20032;-63
2023/02/16 05:09:21;;;;;;;96.20;47.03;;;;;;;-0.53;100.00;96884.72;5073188;28;20047;-63
2023/02/16 05:14:42;;;;;;;60.05;32.65;;;;;;;-0.62;100.00;96891.84;5071456;28;21379;-63
2023/02/16 05:17:17;;;;;;;30.85;19.55;;;;;;;-0.62;100.00;96891.84;5071313;28;20028;-73
2023/02/16 05:19:45;;;;;;;33.35;19.63;;;;;;;-0.58;100.00;96890.88;5069854;28;20025;-77
2023/02/16 05:22:11;;;;;;;27.00;18.73;;;;;;;-0.60;100.00;96887.47;5078399;28;20031;-74
2023/02/16 05:24:37;;;;;;;30.33;20.30;;;;;;;-0.62;100.00;96894.44;5075549;28;20032;-73
2023/02/16 05:27:05;;;;;;;31.05;19.05;;;;;;;-0.72;100.00;96896.44;5074706;28;20031;-73
2023/02/16 05:29:31;;;;;;;30.23;20.27;;;;;;;-0.73;100.00;96902.50;5074562;28;20048;-73
2023/02/16 05:31:57;;;;;;;27.75;18.52;;;;;;;-0.76;100.00;96897.41;5054427;28;20044;-74
2023/02/16 05:34:23;;;;;;;24.67;17.88;;;;;;;-0.84;100.00;96895.94;5069280;28;20418;-61
2023/02/16 05:36:48;;;;;;;27.15;17.48;;;;;;;-0.85;100.00;96897.69;5073454;28;20032;-68
2023/02/16 05:39:14;;;;;;;19.75;16.70;;;;;;;-0.80;100.00;96889.78;5070741;28;20040;-68
2023/02/16 05:41:39;;;;;;;19.75;15.30;;;;;;;-0.78;100.00;96896.63;5061289;28;20883;-67
2023/02/16 05:44:07;;;;;;;21.02;15.88;;;;;;;-0.82;100.00;96899.31;5067889;28;20420;-68
2023/02/16 05:46:34;;;;;;;24.20;16.70;;;;;;;-0.93;100.00;96900.47;5076659;28;20032;-67
2023/02/16 05:49:00;;;;;;;21.80;16.58;;;;;;;-1.00;100.00;96901.50;5067020;28;20029;-67
2023/02/16 05:51:25;;;;;;;22.77;15.85;;;;;;;-1.02;100.00;96904.16;5065184;28;20029;-69
2023/02/16 05:53:51;;;;;;;28.30;19.02;;;;;;;-0.98;100.00;96901.47;5079633;28;20494;-70
2023/02/16 05:56:17;;;;;;;40.67;25.20;;;;;;;-0.89;100.00;96909.84;5080200;28;20088;-71
2023/02/16 05:58:43;;;;;;;34.42;22.25;;;;;;;-0.90;100.00;96910.72;5062558;28;20032;-71
2023/02/16 06:01:08;;;;;;;31.40;22.50;;;;;;;-0.92;100.00;96916.81;5079447;28;20036;-71
2023/02/16 06:03:34;;;;;;;31.90;19.80;;;;;;;-1.02;100.00;96916.22;5076580;28;20055;-71
2023/02/16 06:06:01;;;;;;;37.72;21.05;;;;;;;-1.07;100.00;96915.50;5076874;28;20028;-72
2023/02/16 06:08:28;;;;;;;30.30;20.83;;;;;;;-1.11;100.00;96904.38;5076490;28;20036;-72
2023/02/16 06:10:54;;;;;;;36.55;22.33;;;;;;;-1.14;100.00;96917.38;5078175;28;20039;-67
2023/02/16 06:13:20;;;;;;;30.85;19.95;;;;;;;-1.19;100.00;96909.78;5080068;28;20536;-61
2023/02/16 06:15:47;;;;;;;26.08;18.00;;;;;;;-1.20;100.00;96915.81;5063223;28;20082;-61
2023/02/16 06:18:13;;;;;;;29.02;19.02;;;;;;;-1.22;100.00;96909.00;5080179;28;20028;-61
2023/02/16 06:20:39;;;;;;;25.00;18.48;;;;;;;-1.23;100.00;96920.22;5077303;28;20031;-61
2023/02/16 06:23:06;;;;;;;30.00;19.92;;;;;;;-1.28;100.00;96922.91;5078832;28;20505;-61
2023/02/16 06:25:32;;;;;;;25.40;17.50;;;;;;;-1.31;100.00;96929.03;5060759;28;20029;-61
2023/02/16 06:27:57;;;;;;;23.45;17.10;;;;;;;-1.32;100.00;96921.28;5074245;28;20028;-61
2023/02/16 06:30:24;;;;;;;24.27;17.35;;;;;;;-1.36;100.00;96923.09;5080440;28;20089;-68
2023/02/16 06:32:49;;;;;;;23.98;16.88;;;;;;;-1.36;100.00;96922.25;5079250;28;20115;-71
2023/02/16 06:35:15;;;;;;;30.17;20.50;;;;;;;-1.36;100.00;96919.69;5078059;28;20554;-71
2023/02/16 06:37:40;;;;;;;31.13;21.27;;;;;;;-1.36;100.00;96922.25;5078142;28;20039;-70
2023/02/16 06:40:08;;;;;;;25.50;19.63;;;;;;;-1.36;100.00;96924.84;5079908;28;20049;-71
2023/02/16 06:42:34;;;;;;;30.05;22.40;;;;;;;-1.35;100.00;96929.13;5075571;28;20035;-71
2023/02/16 06:45:00;;;;;;;23.08;17.80;;;;;;;-1.33;100.00;96925.63;5075975;28;20028;-70
2023/02/16 06:47:25;;;;;;;20.75;16.35;;;;;;;-1.29;100.00;96926.38;5079159;28;20031;-70
2023/02/16 06:49:50;;;;;;;19.42;16.52;;;;;;;-1.23;100.00;96923.63;5077113;28;20033;-61
2023/02/16 06:52:16;;;;;;;19.15;16.38;;;;;;;-1.20;100.00;96923.59;5068117;28;20044;-70
2023/02/16 06:54:41;;;;;;;20.50;16.80;;;;;;;-1.18;100.00;96923.53;5075431;28;20123;-71
2023/02/16 06:57:06;;;;;;;20.50;17.67;;;;;;;-1.21;100.00;96927.06;5076197;28;20033;-70
2023/02/16 06:59:32;;;;;;;23.83;18.27;;;;;;;-1.25;100.00;96932.34;5073887;28;20086;-70
2023/02/16 07:01:57;;;;;;;21.52;17.35;;;;;;;-1.28;100.00;96941.00;5081692;28;20024;-70
2023/02/16 07:04:22;;;;;;;21.92;17.77;;;;;;;-1.30;100.00;96945.34;5067381;28;20025;-71
2023/02/16 07:06:48;;;;;;;29.08;21.25;;;;;;;-1.26;100.00;96946.13;5053582;28;20079;-71
2023/02/16 07:09:13;;;;;;;34.78;25.10;;;;;;;-1.23;100.00;96953.81;5055751;28;20036;-71
2023/02/16 07:11:39;;;;;;;38.53;29.35;;;;;;;-1.19;100.00;96956.28;5058103;28;20044;-63
2023/02/16 07:14:04;;;;;;;34.40;24.15;;;;;;;-1.20;100.00;96954.59;5054419;28;20115;-63
2023/02/16 07:16:29;;;;;;;34.65;28.17;;;;;;;-1.22;100.00;96953.75;5054304;28;20040;-63
2023/02/16 07:18:55;;;;;;;31.40;25.50;;;;;;;-1.20;100.00;96949.44;5069433;28;20449;-63
2023/02/16 07:21:20;;;;;;;31.85;24.60;;;;;;;-1.18;100.00;96962.28;5061657;28;20039;-63
2023/02/16 07:23:46;;;;;;;33.35;27.77;;;;;;;-1.21;100.00;96949.44;5065931;28;20028;-63
2023/02/16 07:26:12;;;;;;;34.10;27.55;;;;;;;-1.24;100.00;96958.13;5068676;28;20502;-63
2023/02/16 07:28:37;;;;;;;33.38;27.40;;;;;;;-1.23;100.00;96952.06;5063950;28;20055;-66
2023/02/16 07:31:14;;;;;;;32.25;25.33;;;;;;;-1.23;100.00;96954.66;5062493;28;20032;-67
2023/02/16 07:33:40;;;;;;;31.70;22.95;;;;;;;-1.25;100.00;96953.00;5055238;28;20032;-69
2023/02/16 07:36:06;;;;;;;29.27;22.77;;;;;;;-1.22;100.00;96945.16;5063311;28;20112;-69
2023/02/16 07:38:32;;;;;;;28.98;22.95;;;;;;;-1.19;100.00;96943.38;5067200;28;20040;-69
2023/02/16 07:40:57;;;;;;;28.70;21.90;;;;;;;-1.21;100.00;96947.72;5056885;28;20032;-67
2023/02/16 07:43:23;;;;;;;26.73;22.02;;;;;;;-1.20;100.00;96946.84;5070027;28;20040;-68
2023/02/16 07:45:49;;;;;;;26.73;21.25;;;;;;;-1.16;100.00;96950.19;5070787;28;20024;-66
2023/02/16 07:48:16;;;;;;;25.23;19.23;;;;;;;-1.14;100.00;96950.97;5067035;28;20090;-62
2023/02/16 07:50:41;;;;;;;20.95;18.02;;;;;;;-1.12;100.00;96956.13;5062933;28;20037;-67
2023/02/16 07:53:07;;;;;;;22.50;19.13;;;;;;;-1.16;100.00;96961.38;5068413;28;20048;-67
2023/02/16 07:55:37;;;;;;;25.40;20.15;;;;;;;-1.12;100.00;96967.31;5066265;28;20032;-67
2023/02/16 07:58:03;;;;;;;28.60;21.33;;;;;;;-1.09;100.00;96966.38;5066725;28;20033;-67
2023/02/16 08:00:29;;;;;;;37.42;28.27;;;;;;;-1.00;100.00;96966.13;5054629;28;20040;-67
2023/02/16 08:02:54;;;;;;;44.65;35.15;;;;;;;-0.93;100.00;96964.25;5061580;28;20033;-67
2023/02/16 08:05:19;;;;;;;40.13;33.92;;;;;;;-0.88;100.00;96965.84;5060185;28;20462;-63
2023/02/16 08:07:46;;;;;;;41.38;32.00;;;;;;;-0.88;100.00;96970.19;5069681;28;20025;-69
2023/02/16 08:10:12;;;;;;;42.40;32.67;;;;;;;-0.89;100.00;96977.06;5068972;28;20115;-62
2023/02/16 08:12:38;;;;;;;36.63;29.95;;;;;;;-0.87;100.00;96975.28;5068376;28;20067;-62
2023/02/16 08:15:03;;;;;;;42.33;30.13;;;;;;;-0.82;100.00;96976.91;5070311;28;20028;-62
2023/02/16 08:17:29;;;;;;;36.03;27.73;;;;;;;-0.80;100.00;96977.69;5057612;28;20044;-62
2023/02/16 08:19:54;;;;;;;35.72;26.85;;;;;;;-0.72;100.00;96966.28;5065898;28;20445;-63
2023/02/16 08:22:19;;;;;;;39.78;30.30;;;;;;;-0.71;100.00;96974.88;5056997;28;20120;-63
2023/02/16 08:24:45;;;;;;;34.33;30.70;;;;;;;-0.72;100.00;96970.59;5066974;28;20029;-63
2023/02/16 08:27:10;;;;;;;29.80;24.63;;;;;;;-0.68;100.00;96967.03;5070125;28;20036;-71
2023/02/16 08:29:36;;;;;;;28.70;23.02;;;;;;;-0.64;100.00;96973.81;5069572;28;20498;-70
2023/02/16 08:32:06;;;;;;;23.27;18.38;;;;;;;-0.64;100.00;96975.59;5069937;28;20075;-70
2023/02/16 08:34:32;;;;;;;19.95;17.27;;;;;;;-0.62;100.00;96972.03;5069232;28;20062;-70
2023/02/16 08:36:58;;;;;;;23.50;15.80;;;;;;;-0.47;100.00;96981.13;5069996;28;20099;-70
2023/02/16 08:39:26;;;;;;;17.52;15.77;;;;;;;0.13;100.00;96975.97;5051479;28;20035;-70
2023/02/16 08:41:53;;;;;;;20.58;15.25;;;;;;;0.78;100.00;96975.72;5069787;28;20125;-70
2023/02/16 08:44:20;;;;;;;15.52;13.35;;;;;;;1.25;99.07;96972.41;5068784;28;20025;-68
2023/02/16 08:46:49;;;;;;;21.60;14.73;;;;;;;1.65;96.83;96974.50;5057161;28;20513;-61
2023/02/16 08:49:17;;;;;;;17.00;13.55;;;;;;;2.08;93.84;96969.47;5069773;28;20124;-66
2023/02/16 08:51:48;;;;;;;15.30;12.73;;;;;;;2.41;91.02;96972.50;5069190;28;20130;-69
2023/02/16 08:54:18;;;;;;;16.65;12.63;;;;;;;2.80;89.76;96972.75;5069424;28;20032;-69
2023/02/16 08:56:46;;;;;;;13.23;11.85;;;;;;;3.15;88.05;96970.47;5069337;28;20047;-69
2023/02/16 08:59:14;;;;;;;13.32;9.82;;;;;;;3.53;87.38;96967.94;5069220;28;20047;-69
2023/02/16 09:01:40;;;;;;;15.85;10.98;;;;;;;3.97;86.30;96969.50;5064009;28;20029;-69
2023/02/16 09:04:06;;;;;;;6.63;6.03;;;;;;;4.31;78.48;96974.91;5062890;28;20036;-70
2023/02/16 09:06:35;;;;;;;6.85;6.15;;;;;;;4.54;77.87;96973.84;5070070;28;20029;-72
2023/02/16 09:09:00;;;;;;;7.78;6.78;;;;;;;4.72;74.93;96977.34;5056729;28;20075;-71
2023/02/16 09:11:26;;;;;;;11.55;7.07;;;;;;;4.96;75.63;96974.44;5069191;28;20056;-71
2023/02/16 09:13:52;;;;;;;12.10;8.30;;;;;;;5.16;72.96;96975.22;5058936;28;20045;-72
2023/02/16 09:16:21;;;;;;;13.48;10.60;;;;;;;5.43;73.14;96978.22;5058497;28;20109;-71
2023/02/16 09:18:47;;;;;;;13.07;9.93;;;;;;;5.56;71.36;96981.03;5068681;28;20043;-72
2023/02/16 09:21:15;;;;;;;13.30;10.10;;;;;;;5.67;71.08;96984.84;5069088;28;20044;-71
2023/02/16 09:23:47;;;;;;;11.35;9.25;;;;;;;5.96;71.92;96983.31;5069588;28;20045;-60
2023/02/16 09:26:16;;;;;;;10.57;8.70;;;;;;;6.20;68.98;96980.34;5053161;28;20083;-66
2023/02/16 09:28:42;;;;;;;10.40;8.63;;;;;;;6.45;69.34;96989.47;5049313;28;20035;-66
2023/02/16 09:31:19;;;;;;;7.38;6.68;;;;;;;6.69;70.03;96981.19;5062378;28;20029;-67
2023/02/16 09:33:45;;;;;;;6.75;5.82;;;;;;;6.84;70.62;96984.69;5060883;28;20405;-66
2023/02/16 09:36:11;;;;;;;7.35;5.72;;;;;;;7.04;70.20;96983.59;5068660;28;20092;-65
2023/02/16 09:38:40;;;;;;;7.32;6.22;;;;;;;7.06;68.86;96975.63;5057351;28;20108;-66
2023/02/16 09:41:53;;;;;;;9.38;5.68;;;;;;;7.07;66.29;96978.16;5068149;28;20099;-67
2023/02/16 09:44:22;;;;;;;8.23;5.38;;;;;;;7.41;66.75;96980.59;5051034;28;20426;-60
2023/02/16 09:46:48;;;;;;;6.65;5.50;;;;;;;7.59;64.92;96981.25;5062739;28;20106;-70
2023/02/16 09:49:34;;;;;;;6.20;4.82;;;;;;;7.89;63.70;96985.63;5061586;28;20410;-71
2023/02/16 09:52:34;;;;;;;5.68;4.28;;;;;;;8.16;62.61;96979.59;5050172;28;20033;-71
2023/02/16 09:55:04;;;;;;;8.75;5.18;;;;;;;8.45;61.89;96982.19;5025694;28;20387;-71
2023/02/16 09:57:57;;;;;;;9.68;7.22;;;;;;;8.70;59.40;96980.63;5055688;28;20041;-70
2023/02/16 10:00:31;;;;;;;7.95;6.28;;;;;;;9.11;57.93;96986.78;5069239;28;20059;-70
2023/02/16 10:03:52;;;;;;;8.88;5.65;;;;;;;9.61;57.23;96986.97;5050627;28;20064;-66
2023/02/16 10:06:46;;;;;;;5.68;5.13;;;;;;;9.82;55.84;96989.94;5005872;28;20026;-72
2023/02/16 10:09:18;;;;;;;5.50;4.47;;;;;;;9.86;55.13;96990.56;5003230;28;20038;-72
2023/02/16 10:12:18;;;;;;;7.47;5.22;;;;;;;9.79;52.57;96989.28;5057153;28;20044;-71
2023/02/16 10:14:51;;;;;;;6.55;5.90;;;;;;;9.67;52.76;96988.34;5057500;28;20041;-72
2023/02/16 10:17:27;;;;;;;9.65;6.82;;;;;;;9.86;53.80;96982.69;5065811;28;20041;-72
2023/02/16 10:20:18;;;;;;;8.40;7.40;;;;;;;9.89;52.27;96987.72;5068596;28;20039;-67
2023/02/16 10:22:51;;;;;;;12.95;9.90;;;;;;;10.05;52.21;96990.13;5060729;28;20047;-62
2023/02/16 10:25:36;;;;;;;7.65;6.85;;;;;;;10.21;52.71;96973.28;5057025;28;20574;-60
2023/02/16 10:28:19;;;;;;;7.72;6.55;;;;;;;10.22;51.61;96981.03;5069116;28;20029;-61
2023/02/16 10:30:56;;;;;;;8.15;6.82;;;;;;;10.22;51.84;96975.78;5070434;28;20076;-60
2023/02/16 10:33:39;;;;;;;6.32;5.72;;;;;;;10.50;52.02;96976.50;5072127;28;20513;-60
2023/02/16 10:36:34;;;;;;;7.55;6.78;;;;;;;10.78;51.41;96963.97;5071762;28;20059;-60
2023/02/16 10:39:03;;;;;;;11.07;7.13;;;;;;;10.95;51.08;96969.81;5070877;28;20111;-60
2023/02/16 10:41:38;;;;;;;9.50;8.50;;;;;;;11.09;49.76;96971.41;5072731;28;20067;-66
2023/02/16 10:44:12;;;;;;;11.43;10.15;;;;;;;11.52;50.16;96969.97;5050588;28;20490;-60
2023/02/16 10:46:44;;;;;;;12.00;8.85;;;;;;;11.77;49.82;96957.53;5071451;28;20033;-60
2023/02/16 10:49:12;;;;;;;14.40;8.68;;;;;;;12.08;49.00;96963.13;5072211;28;20087;-60
2023/02/16 10:51:40;;;;;;;10.25;8.90;;;;;;;12.46;49.11;96965.38;5071711;28;20024;-60
2023/02/16 10:54:13;;;;;;;11.10;9.98;;;;;;;12.60;43.94;96964.25;5071766;28;20036;-60
2023/02/16 10:56:39;;;;;;;10.32;9.38;;;;;;;12.16;46.50;96968.63;5071317;28;20120;-60
2023/02/16 10:59:17;;;;;;;10.63;9.52;;;;;;;12.22;46.38;96962.03;5071941;28;20117;-61
2023/02/16 11:01:54;;;;;;;10.80;9.68;;;;;;;12.46;43.35;96967.16;5069666;28;20036;-60
2023/02/16 11:04:40;;;;;;;10.07;9.07;;;;;;;12.92;45.25;96964.41;5071523;28;20040;-60
2023/02/16 11:07:17;;;;;;;14.00;9.77;;;;;;;13.04;43.90;96961.63;5061755;28;20041;-61
2023/02/16 11:09:45;;;;;;;10.20;9.23;;;;;;;13.32;42.72;96963.75;5053055;28;20036;-61
2023/02/16 11:12:34;;;;;;;11.20;9.60;;;;;;;13.21;42.44;96964.66;5053701;28;20044;-61
2023/02/16 11:15:18;;;;;;;12.32;10.07;;;;;;;12.99;42.80;96955.03;5071580;28;20043;-61
2023/02/16 11:17:52;;;;;;;12.53;9.57;;;;;;;13.48;43.13;96954.59;5071584;28;20060;-71
2023/02/16 11:20:53;;;;;;;13.85;9.52;;;;;;;13.46;42.09;96950.25;5071468;28;20842;-69
2023/02/16 11:23:21;;;;;;;12.55;8.45;;;;;;;13.88;38.65;96953.84;5027053;28;20071;-72
2023/02/16 11:25:55;;;;;;;12.80;9.80;;;;;;;13.56;40.55;96954.75;5063711;28;20302;-72
2023/02/16 11:28:38;;;;;;;10.27;8.98;;;;;;;13.43;40.08;96954.97;5057860;28;20025;-71
2023/02/16 11:31:17;;;;;;;10.60;8.98;;;;;;;13.24;40.29;96948.53;5071353;28;20111;-72
2023/02/16 11:33:58;;;;;;;13.95;10.27;;;;;;;12.97;41.03;96935.81;5069194;28;20037;-71
2023/02/16 11:36:28;;;;;;;11.93;10.18;;;;;;;13.14;40.65;96932.59;5069685;28;20040;-72
2023/02/16 11:39:02;;;;;;;11.30;8.20;;;;;;;13.12;40.42;96931.88;5070148;28;20040;-65
2023/02/16 11:41:29;;;;;;;13.50;9.77;;;;;;;13.13;40.78;96932.72;5058877;28;20094;-61
2023/02/16 11:43:55;;;;;;;12.23;9.30;;;;;;;13.00;40.67;96925.81;5071040;28;20036;-61
2023/02/16 11:46:22;;;;;;;10.57;9.50;;;;;;;13.37;41.40;96921.88;5070835;28;20447;-61
2023/02/16 11:48:47;;;;;;;11.23;8.30;;;;;;;13.99;39.53;96919.31;5071151;28;20123;-61
2023/02/16 11:51:14;;;;;;;9.85;8.95;;;;;;;14.45;39.48;96917.09;5070170;28;20120;-62
2023/02/16 11:53:42;;;;;;;12.18;9.18;;;;;;;14.64;38.49;96914.63;5052791;28;20028;-61
2023/02/16 11:56:18;;;;;;;12.65;7.93;;;;;;;14.66;36.66;96913.53;5069387;28;20028;-60
2023/02/16 11:58:44;;;;;;;11.30;9.10;;;;;;;14.36;37.59;96911.78;5068947;28;20410;-66
2023/02/16 12:01:34;;;;;;;14.05;10.23;;;;;;;14.41;37.22;96902.47;5067940;28;20032;-61
2023/02/16 12:04:19;;;;;;;11.38;9.80;;;;;;;13.81;37.90;96895.28;5070347;28;20104;-60
2023/02/16 12:06:54;;;;;;;14.30;9.77;;;;;;;13.91;38.48;96892.69;5060884;28;20060;-61
2023/02/16 12:09:49;;;;;;;12.10;10.60;;;;;;;13.57;38.61;96892.94;5068995;28;20041;-60
2023/02/16 12:12:43;;;;;;;16.38;10.55;;;;;;;13.77;38.48;96885.94;5068020;28;20518;-61
2023/02/16 12:15:43;;;;;;;12.60;10.18;;;;;;;13.80;38.97;96883.03;5052114;28;20419;-61